Latest Weather Observations for Port Pirie Airport AWS

IDS60801

Issued at 9:31 pm CST Thursday 24 September 2020 (issued every 10 minutes, with the page automatically refreshed every 10 minutes)

About weather observations | Map of weather stations | Latest weather observations for SA | Other Formats
Station Details ID: 021139 Name: PORT PIRIE AERODROME AWS Lat: -33.24 Lon: 138.00 Height: 12.0 m
Data from the previous 72 hours. | See also: Recent months for locations in South Australia
Date/Time
CST
Temp
°C
App
Temp
°C
Dew
Point
°C
Rel
Hum
%
Delta-T
°C
Wind Press
QNH
hPa
Press
MSL
hPa
Rain since
9am
mm
Dir  Spd
km/h
Gust
km/h
Spd
kts
Gust
kts
24/09:30pm 9.8 5.5 7.1 83 1.3 WSW 19 24 10 13 1012.4 1012.4 6.6
24/09:00pm 9.7 5.2 6.8 82 1.4 WSW 20 30 11 16 1012.4 1012.4 6.6
24/08:30pm 10.2 3.4 7.8 85 1.2 SW 33 44 18 24 1012.5 1012.5 6.6
24/08:00pm 10.5 2.9 7.7 83 1.3 WSW 37 50 20 27 1012.5 1012.5 6.6
24/07:51pm 11.0 4.5 8.1 82 1.4 WSW 32 50 17 27 1012.4 1012.4 6.4
24/07:30pm 11.2 6.2 7.9 80 1.6 WSW 24 32 13 17 1012.4 1012.4 6.2
24/07:00pm 10.9 4.9 8.7 86 1.1 WSW 30 41 16 22 1012.2 1012.2 6.2
24/06:30pm 12.5 8.8 9.5 82 1.5 WNW 19 24 10 13 1011.8 1011.8 3.0
24/06:00pm 12.6 8.6 9.2 80 1.7 WNW 20 26 11 14 1011.8 1011.8 3.0
24/05:30pm 13.1 9.2 10.8 86 1.2 WNW 22 28 12 15 1012.0 1012.0 3.0
24/05:00pm 11.5 6.5 9.6 88 1.0 W 26 35 14 19 1012.2 1012.2 3.0
24/04:35pm 12.0 5.8 9.4 84 1.3 WNW 32 57 17 31 1012.6 1012.6 1.6
24/04:30pm 12.9 8.0 10.1 83 1.4 WNW 26 33 14 18 1012.1 1012.1 1.2
24/04:00pm 13.2 8.5 10.7 85 1.3 W 26 33 14 18 1012.5 1012.5 1.0
24/03:30pm 12.3 5.0 10.2 87 1.1 WSW 39 52 21 28 1012.7 1012.7 0.6
24/03:16pm 13.0 6.3 9.6 80 1.7 WSW 35 63 19 34 1012.2 1012.2 0.2
24/03:00pm 15.1 9.0 8.3 64 3.4 W 30 43 16 23 1011.9 1011.9 0.0
24/02:54pm 15.1 7.3 8.3 64 3.4 W 39 57 21 31 1011.9 1011.9 0.0
24/02:45pm 17.0 8.7 4.0 42 6.1 NW 37 50 20 27 1011.9 1011.9 0.0
24/02:30pm 17.4 9.9 4.4 42 6.1 NW 33 44 18 24 1011.8 1011.8 0.0
24/02:00pm 18.0 11.2 5.2 43 6.2 NNW 30 41 16 22 1012.6 1012.6 0.0
24/01:30pm 17.6 11.1 4.9 43 6.1 NW 28 39 15 21 1013.6 1013.6 0.0
24/01:00pm 17.7 10.9 5.0 43 6.1 NW 30 43 16 23 1014.4 1014.4 0.0
24/12:30pm 15.9 9.6 5.5 50 5.0 NW 28 39 15 21 1015.0 1015.0 0.0
24/12:00pm 17.2 11.7 5.8 47 5.5 NNW 24 39 13 21 1015.9 1015.9 0.0
24/11:30am 15.1 9.4 5.0 51 4.7 NW 24 35 13 19 1016.7 1016.7 0.0
24/11:00am 15.6 9.9 4.9 49 5.0 NW 24 37 13 20 1017.0 1016.9 0.0
24/10:30am 14.2 8.8 4.5 52 4.5 WNW 22 33 12 18 1017.8 1017.7 0.0
24/10:00am 14.8 8.6 4.5 50 4.8 WNW 26 35 14 19 1018.4 1018.3 0.0
24/09:30am 14.4 8.9 6.0 57 4.0 NW 24 35 13 19 1019.0 1018.9 0.0
24/09:00am 13.6 8.2 6.5 62 3.4 WNW 24 33 13 18 1019.4 1019.3 0.4
24/08:30am 12.4 7.1 6.9 69 2.6 WNW 24 30 13 16 1019.7 1019.6 0.4
24/08:00am 12.4 7.2 7.3 71 2.5 W 24 28 13 15 1019.8 1019.7 0.4
24/07:30am 12.0 8.7 7.9 76 2.0 WNW 15 20 8 11 1019.6 1019.5 0.4
24/07:00am 9.5 6.8 7.3 86 1.0 WNW 11 13 6 7 1019.5 1019.4 0.4
24/06:30am 9.2 6.1 7.2 87 0.9 WNW 13 13 7 7 1019.3 1019.2 0.4
24/06:00am 8.9 5.7 6.9 87 0.9 WNW 13 15 7 8 1019.1 1019.0 0.4
24/05:30am 8.6 5.5 7.1 90 0.7 WNW 13 15 7 8 1019.0 1018.9 0.4
24/05:00am 7.6 3.9 6.1 90 0.7 WNW 15 17 8 9 1019.1 1019.0 0.4
24/04:30am 7.1 3.6 5.6 90 0.7 W 13 15 7 8 1019.3 1019.2 0.4
24/04:00am 7.6 4.2 6.1 90 0.7 W 13 15 7 8 1019.3 1019.2 0.4
24/03:30am 8.8 5.3 7.1 89 0.8 W 15 17 8 9 1019.4 1019.3 0.4
24/03:00am 9.5 6.5 7.8 89 0.8 W 13 15 7 8 1019.6 1019.5 0.2
24/02:30am 9.9 7.8 8.2 89 0.8 W 9 13 5 7 1020.0 1019.9 0.2
24/02:00am 9.4 7.7 8.3 93 0.5 NNW 7 9 4 5 1020.4 1020.3 0.2
24/01:30am 10.0 8.0 8.8 92 0.6 NNE 9 9 5 5 1020.7 1020.6 0.2
24/01:00am 9.8 7.4 8.6 92 0.6 N 11 13 6 7 1021.1 1021.0 0.2
24/12:30am 9.2 6.9 7.5 89 0.8 ENE 9 11 5 6 1021.1 1021.0 0.0
24/12:00am 9.3 6.9 7.1 86 1.0 ENE 9 11 5 6 1021.3 1021.2 0.0
 
Date/Time
CST
Temp
°C
App
Temp
°C
Dew
Point
°C
Rel
Hum
%
Delta-T
°C
Wind Press
QNH
hPa
Press
MSL
hPa
Rain since
9am
mm
Dir  Spd
km/h
Gust
km/h
Spd
kts
Gust
kts
23/11:30pm 9.8 7.5 7.6 86 1.0 NE 9 13 5 7 1021.7 1021.6 0.0
23/11:00pm 8.6 6.1 6.7 88 0.9 NNE 9 11 5 6 1021.9 1021.8 0.0
23/10:30pm 9.5 7.1 7.1 85 1.1 E 9 11 5 6 1022.0 1021.9 0.0
23/10:00pm 10.3 8.1 7.7 84 1.2 SE 9 20 5 11 1022.3 1022.2 0.0
23/09:30pm 10.0 8.3 7.4 84 1.2 ENE 6 7 3 4 1022.4 1022.3 0.0
23/09:00pm 9.5 7.5 6.2 80 1.5 SE 6 7 3 4 1022.3 1022.2 0.0
23/08:30pm 10.2 8.2 7.3 82 1.4 SSW 7 9 4 5 1022.1 1022.0 0.0
23/08:00pm 10.3 7.9 7.0 80 1.6 SSW 9 9 5 5 1022.0 1021.9 0.0
23/07:30pm 10.8 8.4 7.1 78 1.8 SW 9 13 5 7 1021.9 1021.8 0.0
23/07:00pm 11.4 8.4 7.5 77 1.9 SSW 13 15 7 8 1021.6 1021.5 0.0
23/06:30pm 12.5 9.1 7.6 72 2.4 SSW 15 20 8 11 1021.5 1021.4 0.0
23/06:00pm 13.6 9.3 7.8 68 2.8 SSW 20 26 11 14 1021.4 1021.3 0.0
23/05:30pm 14.4 9.3 7.7 64 3.3 SSW 24 33 13 18 1021.1 1021.0 0.0
23/05:00pm 15.3 9.4 7.3 59 4.0 SSW 28 33 15 18 1020.9 1020.8 0.0
23/04:30pm 15.6 9.6 6.9 56 4.3 SSW 28 37 15 20 1020.7 1020.6 0.0
23/04:00pm 16.4 10.5 6.0 50 5.0 SSW 26 39 14 21 1020.5 1020.4 0.0
23/03:30pm 17.2 11.2 7.0 51 5.1 SSW 28 35 15 19 1020.4 1020.3 0.0
23/03:00pm 17.2 10.7 6.4 49 5.3 SW 30 41 16 22 1020.4 1020.3 0.0
23/02:30pm 17.2 10.7 6.4 49 5.3 SSW 30 43 16 23 1020.6 1020.5 0.0
23/02:00pm 16.4 8.9 6.5 52 4.8 SW 35 56 19 30 1020.7 1020.6 0.0
23/01:51pm 17.0 9.9 6.5 50 5.2 SW 33 52 18 28 1020.8 1020.7 0.0
23/01:30pm 18.0 11.3 7.4 50 5.3 SW 32 41 17 22 1020.8 1020.7 0.0
23/01:00pm 16.5 9.6 6.6 52 4.9 SW 32 50 17 27 1021.0 1020.9 0.0
23/12:30pm 17.2 11.2 7.0 51 5.1 SW 28 39 15 21 1021.0 1020.9 0.0
23/12:00pm 17.4 11.2 6.3 48 5.4 WSW 28 41 15 22 1021.2 1021.1 0.0
23/11:30am 17.3 10.7 6.2 48 5.4 WSW 30 39 16 21 1021.5 1021.4 0.0
23/11:00am 16.0 9.9 6.4 53 4.7 WSW 28 37 15 20 1021.7 1021.6 0.0
23/10:30am 16.4 9.8 6.2 51 4.9 WSW 30 41 16 22 1021.8 1021.7 0.0
23/10:00am 15.4 8.1 5.6 52 4.7 WSW 33 43 18 23 1021.9 1021.8 0.0
23/09:30am 15.7 9.2 6.4 54 4.5 W 30 43 16 23 1021.8 1021.7 0.0
23/09:00am 14.1 7.9 6.0 58 3.8 W 28 33 15 18 1021.9 1021.8 0.0
23/08:30am 14.0 8.4 5.6 57 4.0 W 24 35 13 19 1021.7 1021.6 0.0
23/08:00am 13.6 7.5 6.7 63 3.3 W 28 33 15 18 1021.5 1021.4 0.0
23/07:30am 13.2 8.8 7.2 67 2.9 W 20 30 11 16 1021.3 1021.2 0.0
23/07:00am 11.4 7.9 7.1 75 2.1 W 15 19 8 10 1021.2 1021.1 0.0
23/06:30am 9.2 5.5 6.1 81 1.4 W 15 17 8 9 1020.8 1020.7 0.0
23/06:00am 9.6 5.9 6.3 80 1.5 W 15 17 8 9 1020.3 1020.2 0.0
23/05:30am 10.6 7.1 7.1 79 1.7 WNW 15 19 8 10 1020.0 1019.9 0.0
23/05:00am 11.6 8.0 6.9 73 2.2 WNW 15 20 8 11 1019.6 1019.5 0.0
23/04:30am 11.2 7.3 7.1 76 2.0 WNW 17 20 9 11 1019.4 1019.3 0.0
23/04:00am 11.9 7.9 6.6 70 2.5 WNW 17 20 9 11 1019.3 1019.2 0.0
23/03:30am 11.1 7.3 6.0 71 2.4 W 15 19 8 10 1019.2 1019.1 0.0
23/03:00am 10.6 6.3 5.4 70 2.4 WSW 17 20 9 11 1019.4 1019.3 0.0
23/02:30am 10.2 6.7 5.4 72 2.2 W 13 17 7 9 1019.4 1019.3 0.0
23/02:00am 10.0 6.0 5.0 71 2.3 W 15 17 8 9 1019.6 1019.5 0.0
23/01:30am 10.4 6.4 5.0 69 2.4 WSW 15 17 8 9 1019.5 1019.4 0.0
23/01:00am 11.0 7.1 5.5 69 2.5 W 15 22 8 12 1019.7 1019.6 0.0
23/12:30am 10.8 6.9 5.3 69 2.5 W 15 17 8 9 1019.8 1019.7 0.0
23/12:00am 12.4 7.2 5.6 63 3.2 WSW 22 28 12 15 1019.7 1019.6 0.0
 
Date/Time
CST
Temp
°C
App
Temp
°C
Dew
Point
°C
Rel
Hum
%
Delta-T
°C
Wind Press
QNH
hPa
Press
MSL
hPa
Rain since
9am
mm
Dir  Spd
km/h
Gust
km/h
Spd
kts
Gust
kts
22/11:30pm 12.1 7.2 5.0 62 3.2 WSW 20 26 11 14 1019.8 1019.7 0.0
22/11:00pm 12.5 7.6 5.0 60 3.5 WSW 20 30 11 16 1019.7 1019.6 0.0
22/10:30pm 12.8 6.7 4.8 58 3.7 WSW 26 35 14 19 1019.5 1019.4 0.0
22/10:00pm 13.2 7.1 4.9 57 3.8 WSW 26 33 14 18 1019.5 1019.4 0.0
22/09:30pm 13.7 6.9 5.1 56 4.0 WSW 30 39 16 21 1019.5 1019.4 0.0
22/09:00pm 14.1 6.9 5.2 55 4.2 WSW 32 41 17 22 1019.0 1018.9 0.0
22/08:30pm 15.0 8.6 5.0 51 4.7 SW 28 37 15 20 1018.7 1018.6 0.0
22/08:00pm 15.4 11.8 8.2 62 3.6 SSW 17 26 9 14 1018.7 1018.6 0.0
22/07:30pm 14.9 12.5 8.8 67 3.1 S 11 15 6 8 1018.2 1018.1 0.0
22/07:00pm 15.2 11.3 8.7 65 3.3 S 19 22 10 12 1017.6 1017.5 0.0
22/06:30pm 15.8 11.3 7.1 56 4.3 SSW 20 26 11 14 1016.8 1016.8 0.0
22/06:00pm 16.4 11.8 5.4 48 5.3 SSW 19 26 10 14 1016.2 1016.2 0.0
22/05:30pm 16.4 11.2 5.4 48 5.3 SSW 22 32 12 17 1015.9 1015.9 0.0
22/05:00pm 18.2 13.7 6.1 45 6.0 SW 19 24 10 13 1015.5 1015.5 0.0
22/04:30pm 18.2 13.9 7.0 48 5.6 SW 19 30 10 16 1015.2 1015.2 0.0
22/04:00pm 18.7 13.6 5.9 43 6.3 WSW 22 35 12 19 1015.0 1015.0 0.0
22/03:30pm 18.4 11.6 6.9 47 5.8 WNW 32 41 17 22 1015.0 1015.0 0.0
22/03:02pm 19.1 12.6 4.8 39 6.9 WNW 28 46 15 25 1014.7 1014.7 0.0
22/03:00pm 19.5 13.9 5.6 40 6.8 WNW 24 35 13 19 1014.7 1014.7 0.0
22/02:30pm 17.4 9.6 6.6 49 5.3 WNW 37 50 20 27 1015.0 1015.0 0.0
22/02:00pm 18.6 11.4 4.8 40 6.6 WNW 32 43 17 23 1015.0 1015.0 0.0
22/01:30pm 19.3 12.5 5.0 39 6.9 WNW 30 41 16 22 1015.0 1015.0 0.0
22/01:00pm 19.1 11.8 4.5 38 7.0 WNW 32 43 17 23 1015.1 1015.1 0.0
22/12:30pm 19.3 13.6 5.0 39 6.9 WNW 24 39 13 21 1015.4 1015.4 0.0
22/12:00pm 18.4 11.9 4.9 41 6.5 W 28 43 15 23 1015.6 1015.6 0.0
22/11:30am 17.5 10.2 5.4 45 5.8 WNW 33 46 18 25 1015.8 1015.8 0.0
22/11:14am 18.4 11.5 6.3 45 6.0 W 32 52 17 28 1015.9 1015.9 0.0
22/11:00am 17.5 10.3 6.1 47 5.6 W 33 41 18 22 1016.1 1016.1 0.0
22/10:30am 17.3 9.8 6.2 48 5.4 W 35 46 19 25 1015.9 1015.9 0.0
22/10:00am 16.6 9.0 5.6 48 5.3 WNW 35 44 19 24 1015.9 1015.9 0.0
22/09:30am 15.4 8.3 6.4 55 4.4 W 33 46 18 25 1015.8 1015.8 0.0
22/09:00am 15.8 8.9 7.1 56 4.3 W 33 46 18 25 1015.5 1015.5 0.0
22/08:30am 15.2 8.3 7.3 59 3.9 WNW 33 43 18 23 1015.4 1015.4 0.0
22/08:00am 14.0 7.1 7.1 63 3.4 NW 33 46 18 25 1015.1 1015.1 0.0
22/07:30am 13.9 7.2 7.2 64 3.3 WNW 32 41 17 22 1014.7 1014.7 0.0
22/07:00am 12.9 7.4 7.4 69 2.7 NW 26 37 14 20 1014.1 1014.1 0.0
22/06:30am 12.3 6.0 7.6 73 2.3 NW 30 39 16 21 1013.8 1013.8 0.0
22/06:00am 11.9 6.4 7.4 74 2.2 NW 26 33 14 18 1013.5 1013.5 0.0
22/05:30am 12.3 7.2 7.8 74 2.2 NW 24 35 13 19 1013.3 1013.3 0.0
22/05:00am 12.4 6.5 7.5 72 2.4 NW 28 37 15 20 1013.1 1013.1 0.0
22/04:30am 12.6 6.8 6.4 66 2.9 NW 26 37 14 20 1012.8 1012.8 0.0
22/04:00am 12.7 6.5 6.3 65 3.0 WNW 28 37 15 20 1012.4 1012.4 0.0
22/03:30am 13.4 7.3 6.5 63 3.3 WNW 28 41 15 22 1012.3 1012.3 0.0
22/03:00am 13.1 7.9 7.1 67 2.9 NW 24 33 13 18 1012.4 1012.4 0.0
22/02:30am 13.1 7.4 6.7 65 3.1 WNW 26 37 14 20 1012.4 1012.4 0.0
22/02:00am 13.5 7.1 7.1 65 3.1 WNW 30 41 16 22 1012.3 1012.3 0.0
22/01:30am 13.1 8.3 7.3 68 2.8 NW 22 33 12 18 1012.3 1012.3 0.0
22/01:00am 13.5 8.0 7.5 67 2.9 WNW 26 33 14 18 1012.3 1012.3 0.0
22/12:30am 13.5 6.7 7.1 65 3.1 WNW 32 46 17 25 1012.7 1012.7 0.0
22/12:00am 14.1 7.4 7.2 63 3.4 WNW 32 43 17 23 1012.7 1012.7 0.0
 
Date/Time
CST
Temp
°C
App
Temp
°C
Dew
Point
°C
Rel
Hum
%
Delta-T
°C
Wind Press
QNH
hPa
Press
MSL
hPa
Rain since
9am
mm
Dir  Spd
km/h
Gust
km/h
Spd
kts
Gust
kts
21/11:30pm 13.8 8.4 8.2 69 2.8 WNW 26 35 14 19 1012.7 1012.7 0.0
21/11:00pm 13.7 8.3 8.1 69 2.8 WNW 26 35 14 19 1012.5 1012.5 0.0
21/10:30pm 14.4 7.7 7.5 63 3.4 WNW 32 39 17 21 1012.3 1012.3 0.0
21/10:00pm 15.1 7.6 7.9 62 3.6 W 37 57 20 31 1012.3 1012.3 0.0

Other formats

Comma delimited format used in spreadsheet applications
http://www.bom.gov.au/fwo/IDS60801/IDS60801.99749.axf

JavaScript Object Notation format (JSON) in row-major order
http://www.bom.gov.au/fwo/IDS60801/IDS60801.99749.json

Data quality

Most of these data are generated automatically and are frequently updated. Quality checks on data are not normally performed. It is possible for incorrect values to appear. Refer to information at About Latest Weather Observations and please check the disclaimer before using these data.